Time;durP1;ratioP1;P1;durP2;ratioP2;P2;SDS_P1;SDS_P2;PMS_P1;PMS_P2;Temp;Humidity;BMP_temperature;BMP_pressure;BME280_temperature;BME280_humidity;BME280_pressure;Samples;Min_cycle;Max_cycle;Signal;HPM_P1;HPM_P2
2022/04/11 00:00:14;;;;;;;28.50;14.53;;;;;;;-0.31;74.64;100265.26;1721085;83;25481;-71
2022/04/11 00:02:42;;;;;;;35.52;17.62;;;;;;;-0.31;75.09;100267.92;1721300;82;25715;-72
2022/04/11 00:05:09;;;;;;;28.67;15.13;;;;;;;-0.28;75.10;100276.75;1720968;83;25541;-72
2022/04/11 00:07:36;;;;;;;26.12;13.38;;;;;;;-0.26;75.32;100268.55;1721225;82;25566;-72
2022/04/11 00:10:03;;;;;;;33.55;14.87;;;;;;;-0.26;75.35;100273.33;1721260;83;25641;-71
2022/04/11 00:12:34;;;;;;;31.87;16.12;;;;;;;-0.25;75.43;100272.30;1721549;82;25631;-71
2022/04/11 00:14:58;;;;;;;32.08;15.90;;;;;;;-0.24;75.52;100271.77;1721182;82;28093;-72
2022/04/11 00:17:24;;;;;;;21.73;12.37;;;;;;;-0.24;75.50;100273.92;1721284;83;25715;-71
2022/04/11 00:19:57;;;;;;;24.72;12.58;;;;;;;-0.22;76.01;100271.03;1722009;82;25525;-72
2022/04/11 00:22:24;;;;;;;22.73;11.50;;;;;;;-0.18;75.98;100270.03;1721897;82;26202;-72
2022/04/11 00:24:52;;;;;;;18.95;11.10;;;;;;;-0.14;76.23;100280.46;1721445;83;25623;-72
2022/04/11 00:27:19;;;;;;;17.90;10.23;;;;;;;-0.11;76.50;100280.79;1721286;83;27341;-71
2022/04/11 00:29:46;;;;;;;18.02;10.35;;;;;;;-0.07;76.71;100283.27;1721221;83;25639;-71
2022/04/11 00:32:12;;;;;;;22.87;12.05;;;;;;;-0.02;77.03;100290.52;1690397;84;25656;-71
2022/04/11 00:34:39;;;;;;;17.15;10.28;;;;;;;0.02;76.93;100290.34;1737581;82;26320;-71
2022/04/11 00:37:06;;;;;;;24.55;10.85;;;;;;;0.06;77.29;100288.80;1721391;82;25424;-72
2022/04/11 00:39:32;;;;;;;21.87;11.08;;;;;;;0.10;77.35;100291.28;1721266;82;27936;-73
2022/04/11 00:42:08;;;;;;;16.52;9.40;;;;;;;0.13;77.12;100289.98;1690278;84;25635;-72
2022/04/11 00:44:35;;;;;;;16.65;9.63;;;;;;;0.15;78.08;100297.20;1721016;82;25458;-71
2022/04/11 00:47:02;;;;;;;18.80;10.58;;;;;;;0.21;77.38;100294.92;1721185;83;25627;-71
2022/04/11 00:49:29;;;;;;;17.37;9.80;;;;;;;0.25;77.85;100300.03;1721556;82;25585;-71
2022/04/11 00:51:56;;;;;;;15.75;9.38;;;;;;;0.31;78.24;100300.95;1723709;82;27925;-72
2022/04/11 00:54:25;;;;;;;17.12;9.80;;;;;;;0.35;78.32;100297.55;1699741;84;25448;-72
2022/04/11 00:56:54;;;;;;;15.78;9.73;;;;;;;0.41;78.43;100302.45;1699929;84;25591;-72
2022/04/11 00:59:21;;;;;;;17.57;9.53;;;;;;;0.45;78.17;100299.58;1678001;84;25687;-71
2022/04/11 01:01:49;;;;;;;17.02;9.30;;;;;;;0.47;77.87;100300.67;1699843;84;25634;-72
2022/04/11 01:04:26;;;;;;;14.83;9.58;;;;;;;0.50;77.88;100304.19;1699754;84;27365;-72
2022/04/11 01:06:55;;;;;;;18.75;10.50;;;;;;;0.53;78.08;100301.84;1730521;82;25656;-72
2022/04/11 01:09:24;;;;;;;16.80;9.53;;;;;;;0.57;78.09;100307.48;1699801;83;25482;-71
2022/04/11 01:11:52;;;;;;;16.30;9.68;;;;;;;0.59;77.90;100314.70;1699946;84;25628;-72
2022/04/11 01:14:20;;;;;;;20.88;10.15;;;;;;;0.62;77.98;100313.42;1699884;84;25649;-72
2022/04/11 01:16:50;;;;;;;16.90;9.65;;;;;;;0.66;78.17;100320.66;1699992;84;27251;-71
2022/04/11 01:19:18;;;;;;;20.05;9.53;;;;;;;0.68;78.06;100318.59;1699810;84;25741;-72
2022/04/11 01:21:47;;;;;;;15.50;9.43;;;;;;;0.70;78.04;100317.81;1700417;84;25625;-72
2022/04/11 01:24:16;;;;;;;15.95;9.68;;;;;;;0.73;78.35;100320.00;1699722;84;25882;-72
2022/04/11 01:26:45;;;;;;;17.45;9.88;;;;;;;0.77;78.20;100323.48;1700025;84;30463;-72
2022/04/11 01:29:13;;;;;;;20.50;11.03;;;;;;;0.78;77.90;100321.11;1699768;84;28054;-72
2022/04/11 01:31:39;;;;;;;19.12;10.23;;;;;;;0.80;78.14;100327.00;1699745;84;25641;-73
2022/04/11 01:34:06;;;;;;;18.65;10.63;;;;;;;0.82;78.17;100325.72;1699888;84;25641;-73
2022/04/11 01:36:32;;;;;;;17.98;10.20;;;;;;;0.86;78.46;100330.83;1699867;84;25620;-72
2022/04/11 01:38:59;;;;;;;16.95;10.60;;;;;;;0.90;78.34;100331.14;1699851;84;25476;-72
2022/04/11 01:41:26;;;;;;;19.92;10.90;;;;;;;0.91;78.24;100333.57;1699854;84;27361;-71
2022/04/11 01:43:53;;;;;;;20.50;10.93;;;;;;;0.95;78.60;100335.22;1699710;84;25584;-72
2022/04/11 01:46:19;;;;;;;24.67;12.50;;;;;;;0.97;78.77;100337.14;1699924;84;25633;-71
2022/04/11 01:48:46;;;;;;;21.65;11.03;;;;;;;0.99;78.62;100337.70;1700112;84;25757;-70
2022/04/11 01:51:14;;;;;;;21.85;11.35;;;;;;;1.02;78.64;100340.38;1700532;84;25488;-72
2022/04/11 01:53:41;;;;;;;20.62;11.48;;;;;;;1.02;78.61;100341.20;1699867;84;27445;-72
2022/04/11 01:56:07;;;;;;;24.32;12.68;;;;;;;1.02;78.44;100337.72;1699861;84;25673;-72
2022/04/11 01:58:33;;;;;;;19.50;13.03;;;;;;;1.02;78.77;100340.38;1699835;84;25415;-72
2022/04/11 02:01:00;;;;;;;24.10;12.60;;;;;;;1.02;78.74;100343.88;1699883;84;26177;-72
2022/04/11 02:03:27;;;;;;;23.12;12.80;;;;;;;1.00;78.60;100345.15;1699971;84;25490;-73
2022/04/11 02:05:53;;;;;;;22.80;12.95;;;;;;;1.00;78.83;100354.47;1699909;84;27335;-73
2022/04/11 02:08:21;;;;;;;26.50;13.43;;;;;;;0.99;78.95;100350.19;1699850;84;25642;-73
2022/04/11 02:10:47;;;;;;;25.43;12.70;;;;;;;0.99;78.68;100356.34;1699916;84;25636;-72
2022/04/11 02:13:13;;;;;;;22.93;12.90;;;;;;;0.99;78.90;100359.00;1699928;84;25644;-72
2022/04/11 02:15:40;;;;;;;26.85;14.23;;;;;;;1.01;78.83;100360.09;1700013;84;25661;-72
2022/04/11 02:18:07;;;;;;;23.80;12.93;;;;;;;1.01;78.90;100354.77;1699951;84;27387;-72
2022/04/11 02:20:35;;;;;;;21.48;13.95;;;;;;;1.02;78.82;100355.03;1699897;84;25433;-73
2022/04/11 02:23:02;;;;;;;23.38;13.60;;;;;;;1.05;78.94;100359.88;1699983;84;25413;-73
2022/04/11 02:25:32;;;;;;;24.00;13.85;;;;;;;1.05;78.96;100359.88;1699885;84;25627;-73
2022/04/11 02:28:00;;;;;;;22.15;13.30;;;;;;;1.07;79.17;100356.44;1700017;84;25409;-73
2022/04/11 02:30:27;;;;;;;25.55;12.90;;;;;;;1.08;79.07;100353.53;1699982;84;28134;-73
2022/04/11 02:32:55;;;;;;;24.07;14.23;;;;;;;1.10;79.30;100360.75;1699827;84;25649;-73
2022/04/11 02:35:22;;;;;;;24.23;14.40;;;;;;;1.09;79.38;100354.33;1678073;84;25502;-73
2022/04/11 02:37:49;;;;;;;27.52;14.85;;;;;;;1.11;79.28;100359.71;1699896;84;25705;-73
2022/04/11 02:40:16;;;;;;;26.05;14.83;;;;;;;1.13;79.32;100358.14;1699983;84;25662;-72
2022/04/11 02:42:45;;;;;;;22.82;13.45;;;;;;;1.14;79.32;100358.40;1699909;84;27355;-72
2022/04/11 02:45:13;;;;;;;22.55;14.40;;;;;;;1.15;79.41;100353.36;1699914;84;25587;-71
2022/04/11 02:47:40;;;;;;;23.30;14.80;;;;;;;1.17;79.46;100357.12;1700227;84;25494;-72
2022/04/11 02:50:10;;;;;;;23.90;14.30;;;;;;;1.18;79.32;100359.54;1700013;84;25699;-72
2022/04/11 02:52:36;;;;;;;23.90;14.28;;;;;;;1.18;79.23;100350.75;1699979;84;25636;-71
2022/04/11 02:55:05;;;;;;;24.50;14.55;;;;;;;1.18;79.39;100360.08;1699890;84;27330;-71
2022/04/11 02:57:31;;;;;;;23.98;15.58;;;;;;;1.19;79.41;100361.67;1700061;84;25447;-71
2022/04/11 02:59:58;;;;;;;26.33;15.32;;;;;;;1.21;79.45;100364.39;1699859;84;25667;-71
2022/04/11 03:02:24;;;;;;;24.80;15.10;;;;;;;1.21;79.27;100360.39;1699828;84;25800;-71
2022/04/11 03:04:51;;;;;;;24.82;15.32;;;;;;;1.21;79.31;100363.56;1699881;84;25491;-72
2022/04/11 03:07:17;;;;;;;25.37;15.50;;;;;;;1.21;79.29;100357.73;1699950;84;27435;-71
2022/04/11 03:09:43;;;;;;;25.50;15.23;;;;;;;1.23;79.20;100362.81;1699780;84;25643;-71
2022/04/11 03:12:10;;;;;;;24.77;14.93;;;;;;;1.22;79.53;100367.31;1699931;84;25635;-71
2022/04/11 03:14:37;;;;;;;26.52;13.98;;;;;;;1.22;79.56;100364.65;1699892;84;25782;-71
2022/04/11 03:17:04;;;;;;;24.27;15.25;;;;;;;1.24;79.42;100368.41;1699976;84;25410;-71
2022/04/11 03:19:31;;;;;;;25.72;15.58;;;;;;;1.24;79.36;100370.56;1699992;84;27326;-71
2022/04/11 03:21:59;;;;;;;30.97;18.65;;;;;;;1.25;79.52;100372.16;1699811;84;25629;-72
2022/04/11 03:24:25;;;;;;;28.73;16.87;;;;;;;1.27;79.54;100378.05;1699934;84;25566;-70
2022/04/11 03:26:52;;;;;;;24.52;15.60;;;;;;;1.28;79.53;100376.21;1699888;84;25657;-72
2022/04/11 03:29:18;;;;;;;27.37;15.98;;;;;;;1.29;79.55;100387.95;1699893;84;25636;-72
2022/04/11 03:31:46;;;;;;;26.82;16.27;;;;;;;1.29;79.49;100386.63;1699918;84;27397;-72
2022/04/11 03:34:13;;;;;;;24.72;15.40;;;;;;;1.33;79.43;100384.78;1699913;84;25613;-72
2022/04/11 03:36:39;;;;;;;33.13;17.02;;;;;;;1.33;79.37;100386.94;1699905;84;25429;-72
2022/04/11 03:39:05;;;;;;;25.68;14.90;;;;;;;1.34;79.30;100383.20;1699859;84;25591;-72
2022/04/11 03:41:32;;;;;;;27.37;16.52;;;;;;;1.35;79.33;100386.70;1699928;84;25616;-72
2022/04/11 03:43:58;;;;;;;26.05;15.70;;;;;;;1.34;79.22;100385.87;1699847;84;28202;-72
2022/04/11 03:46:25;;;;;;;30.15;15.88;;;;;;;1.35;79.08;100392.83;1699780;84;25809;-72
2022/04/11 03:48:51;;;;;;;26.50;15.48;;;;;;;1.35;79.06;100390.16;1699870;84;25580;-71
2022/04/11 03:51:20;;;;;;;25.23;15.60;;;;;;;1.33;78.92;100397.60;1700204;84;25706;-71
2022/04/11 03:53:50;;;;;;;22.40;15.93;;;;;;;1.33;78.92;100400.27;1685260;84;25578;-72
2022/04/11 03:56:17;;;;;;;28.75;17.15;;;;;;;1.30;78.89;100400.75;1669485;86;27136;-72
2022/04/11 03:58:45;;;;;;;30.55;17.32;;;;;;;1.27;78.68;100402.03;1690823;84;25589;-72
2022/04/11 04:01:12;;;;;;;30.77;16.65;;;;;;;1.23;78.67;100405.45;1690820;84;25656;-72
2022/04/11 04:03:40;;;;;;;28.27;17.20;;;;;;;1.22;78.49;100410.48;1690748;84;25731;-72
2022/04/11 04:06:31;;;;;;;28.15;15.23;;;;;;;1.19;78.60;100403.80;1690863;84;25523;-72
2022/04/11 04:08:57;;;;;;;27.07;16.45;;;;;;;1.17;78.62;100408.54;1669269;86;26692;-71
2022/04/11 04:11:24;;;;;;;27.25;16.05;;;;;;;1.17;78.78;100406.41;1698885;84;25766;-71
2022/04/11 04:13:50;;;;;;;31.33;18.25;;;;;;;1.16;78.70;100407.45;1698988;84;25674;-73
2022/04/11 04:16:18;;;;;;;27.73;17.62;;;;;;;1.15;78.84;100409.85;1698948;84;25637;-71
2022/04/11 04:18:44;;;;;;;31.55;17.48;;;;;;;1.13;78.79;100414.62;1698972;84;25520;-72
2022/04/11 04:21:11;;;;;;;29.72;17.77;;;;;;;1.13;78.79;100413.29;1699125;84;28034;-72
2022/04/11 04:23:38;;;;;;;29.45;17.65;;;;;;;1.13;78.87;100410.63;1698832;84;25560;-71
2022/04/11 04:26:04;;;;;;;30.72;18.62;;;;;;;1.14;78.92;100414.89;1698888;84;25521;-71
2022/04/11 04:28:30;;;;;;;29.45;18.82;;;;;;;1.15;79.16;100415.18;1698874;84;26337;-72
2022/04/11 04:30:57;;;;;;;30.35;18.82;;;;;;;1.17;79.36;100421.06;1698941;84;25525;-72
2022/04/11 04:33:25;;;;;;;28.98;17.82;;;;;;;1.17;79.38;100421.06;1724944;82;27533;-71
2022/04/11 04:35:51;;;;;;;30.62;19.05;;;;;;;1.18;79.24;100420.03;1735557;82;25536;-72
2022/04/11 04:38:17;;;;;;;29.65;18.27;;;;;;;1.17;79.17;100419.20;1735633;82;25398;-71
2022/04/11 04:40:44;;;;;;;31.52;18.70;;;;;;;1.16;79.08;100427.44;1735536;82;25613;-71
2022/04/11 04:43:10;;;;;;;30.55;18.20;;;;;;;1.15;78.97;100429.30;1735508;82;25418;-71
2022/04/11 04:45:37;;;;;;;30.15;17.90;;;;;;;1.13;78.65;100425.28;1735556;82;27481;-71
2022/04/11 04:48:06;;;;;;;31.97;18.17;;;;;;;1.11;78.54;100432.98;1735538;82;25458;-72
2022/04/11 04:50:33;;;;;;;;;;;;;;;1.10;78.52;100434.55;1738171;82;25532;-72
2022/04/11 04:52:59;;;;;;;30.70;16.60;;;;;;;1.08;78.82;100436.13;1688984;84;25616;-72
2022/04/11 04:55:25;;;;;;;28.95;18.55;;;;;;;1.05;78.64;100437.13;1707470;84;25453;-72
2022/04/11 04:57:52;;;;;;;31.00;19.00;;;;;;;1.02;78.83;100445.09;1707394;84;27383;-72
2022/04/11 05:00:19;;;;;;;26.37;17.70;;;;;;;0.99;78.79;100437.58;1707343;84;25549;-72
2022/04/11 05:02:45;;;;;;;30.95;17.77;;;;;;;0.97;78.87;100435.69;1707428;84;25409;-72
2022/04/11 05:05:16;;;;;;;28.07;18.77;;;;;;;0.99;78.97;100434.09;1707406;84;25628;-71
2022/04/11 05:07:42;;;;;;;29.37;17.27;;;;;;;1.00;79.10;100433.85;1712510;83;25395;-70
2022/04/11 05:10:09;;;;;;;29.95;18.67;;;;;;;1.03;79.30;100431.25;1719387;83;27316;-70
2022/04/11 05:12:45;;;;;;;34.53;20.52;;;;;;;1.05;79.53;100426.48;1719235;83;25578;-70
2022/04/11 05:15:13;;;;;;;29.77;18.92;;;;;;;1.09;79.85;100434.25;1719393;83;25529;-70
2022/04/11 05:17:40;;;;;;;33.38;20.00;;;;;;;1.14;79.96;100437.00;1719360;83;26172;-70
2022/04/11 05:20:09;;;;;;;33.00;20.80;;;;;;;1.22;80.46;100442.46;1719608;83;25420;-71
2022/04/11 05:22:36;;;;;;;30.30;19.37;;;;;;;1.32;80.88;100443.95;1719690;83;27332;-71
2022/04/11 05:25:03;;;;;;;34.55;21.07;;;;;;;1.49;81.57;100448.73;1717672;83;25568;-71
2022/04/11 05:27:30;;;;;;;34.83;20.77;;;;;;;1.64;81.81;100442.81;1754352;81;25666;-71
2022/04/11 05:29:56;;;;;;;37.42;22.22;;;;;;;1.83;82.20;100442.00;1750820;81;25619;-71
2022/04/11 05:32:22;;;;;;;35.38;21.42;;;;;;;2.01;82.48;100440.08;1759289;80;25853;-72
2022/04/11 05:34:49;;;;;;;34.00;19.92;;;;;;;2.17;82.04;100440.55;1769147;80;27905;-72
2022/04/11 05:37:15;;;;;;;33.48;18.23;;;;;;;2.30;81.63;100440.70;1764029;80;25791;-71
2022/04/11 05:39:42;;;;;;;28.25;17.40;;;;;;;2.37;80.97;100441.85;1764211;80;25898;-71
2022/04/11 05:42:09;;;;;;;30.23;17.98;;;;;;;2.47;81.08;100438.46;1769845;80;25766;-71
2022/04/11 05:44:35;;;;;;;31.52;17.20;;;;;;;2.64;81.04;100445.88;1762252;80;25721;-71
2022/04/11 05:47:02;;;;;;;28.17;16.87;;;;;;;2.74;80.77;100452.65;1767846;80;27338;-72
2022/04/11 05:49:30;;;;;;;27.35;16.87;;;;;;;2.87;80.54;100458.09;1762381;80;25545;-72
2022/04/11 05:51:57;;;;;;;29.95;16.67;;;;;;;2.99;80.66;100465.41;1786621;80;25453;-73
2022/04/11 05:54:23;;;;;;;28.00;16.85;;;;;;;3.06;80.08;100463.87;1786390;80;25661;-72
2022/04/11 05:56:50;;;;;;;24.63;17.87;;;;;;;3.14;79.90;100470.09;1760179;80;25762;-72
2022/04/11 05:59:16;;;;;;;28.23;16.73;;;;;;;3.20;79.53;100470.92;1757190;80;27161;-72
2022/04/11 06:01:42;;;;;;;27.95;18.67;;;;;;;3.24;79.13;100471.25;1754179;81;25245;-71
2022/04/11 06:04:09;;;;;;;40.43;20.25;;;;;;;3.24;78.73;100471.25;1754177;81;25588;-72
2022/04/11 06:06:36;;;;;;;33.25;20.10;;;;;;;3.29;78.92;100476.09;1753658;81;25607;-71
2022/04/11 06:09:04;;;;;;;34.30;20.35;;;;;;;3.38;78.94;100475.62;1755469;81;25597;-71
2022/04/11 06:11:31;;;;;;;40.43;22.10;;;;;;;3.50;79.01;100481.05;1755864;81;27401;-71
2022/04/11 06:13:57;;;;;;;30.15;19.48;;;;;;;3.65;79.13;100487.58;1755727;81;25632;-71
2022/04/11 06:16:24;;;;;;;34.95;20.15;;;;;;;3.73;78.46;100490.58;1755772;81;25367;-71
2022/04/11 06:18:52;;;;;;;30.20;18.87;;;;;;;3.76;77.75;100493.80;1732375;81;25616;-72
2022/04/11 06:21:18;;;;;;;31.00;19.23;;;;;;;3.70;77.12;100491.09;1755877;81;25638;-72
2022/04/11 06:23:46;;;;;;;34.27;20.77;;;;;;;3.67;76.96;100486.25;1755780;81;27352;-72
2022/04/11 06:26:12;;;;;;;30.52;19.02;;;;;;;3.68;76.81;100491.09;1755743;81;25499;-73
2022/04/11 06:28:41;;;;;;;37.53;21.45;;;;;;;3.73;77.14;100491.12;1755775;81;25470;-72
2022/04/11 06:31:10;;;;;;;31.62;20.50;;;;;;;3.82;77.24;100486.08;1755014;80;25868;-72
2022/04/11 06:33:37;;;;;;;33.05;20.52;;;;;;;4.06;78.14;100492.62;1748203;81;25667;-72
2022/04/11 06:36:04;;;;;;;30.95;20.27;;;;;;;4.30;76.96;100490.86;1750370;81;27045;-72
2022/04/11 06:38:31;;;;;;;30.00;19.15;;;;;;;4.43;77.43;100493.05;1757618;80;25640;-72
2022/04/11 06:40:57;;;;;;;32.28;20.17;;;;;;;4.55;76.73;100498.73;1743611;81;26399;-72
2022/04/11 06:43:24;;;;;;;28.52;19.12;;;;;;;4.65;76.31;100498.75;1725436;83;25688;-72
2022/04/11 06:45:50;;;;;;;34.75;21.33;;;;;;;4.64;75.22;100499.27;1725713;83;25594;-73
2022/04/11 06:48:17;;;;;;;34.27;19.82;;;;;;;4.68;75.74;100503.05;1725766;83;27334;-74
2022/04/11 06:50:44;;;;;;;36.30;19.85;;;;;;;4.74;75.29;100503.86;1725838;83;25711;-73
2022/04/11 06:53:15;;;;;;;33.40;20.37;;;;;;;4.77;75.12;100506.02;1725778;83;25415;-73
2022/04/11 06:55:47;;;;;;;30.40;19.37;;;;;;;4.90;75.16;100511.92;1725756;83;25659;-73
2022/04/11 06:58:13;;;;;;;28.35;19.62;;;;;;;5.05;75.37;100510.61;1725664;83;25612;-73
2022/04/11 07:00:39;;;;;;;27.25;18.17;;;;;;;5.17;75.42;100508.47;1725758;83;27346;-73
2022/04/11 07:03:05;;;;;;;26.82;18.48;;;;;;;5.30;74.63;100512.51;1725665;83;25647;-73
2022/04/11 07:05:32;;;;;;;31.55;18.73;;;;;;;5.36;74.05;100513.30;1725728;83;25562;-73
2022/04/11 07:07:58;;;;;;;29.30;18.40;;;;;;;5.40;74.02;100506.34;1725618;81;25703;-73
2022/04/11 07:10:25;;;;;;;29.75;19.98;;;;;;;5.40;73.11;100514.39;1725756;83;25424;-73
2022/04/11 07:12:51;;;;;;;33.73;22.17;;;;;;;5.39;72.61;100515.45;1725680;83;27333;-73
2022/04/11 07:15:18;;;;;;;32.78;21.35;;;;;;;5.29;72.12;100516.80;1725627;83;25411;-73
2022/04/11 07:17:44;;;;;;;33.02;21.25;;;;;;;5.26;72.89;100519.49;1725763;83;25600;-73
2022/04/11 07:20:12;;;;;;;30.32;21.70;;;;;;;5.17;72.28;100523.22;1725823;83;25631;-73
2022/04/11 07:22:39;;;;;;;32.78;22.07;;;;;;;5.14;72.96;100525.63;1725719;83;25624;-73
2022/04/11 07:25:05;;;;;;;32.40;21.30;;;;;;;5.19;73.34;100528.31;1725633;83;28221;-73
2022/04/11 07:27:32;;;;;;;35.95;21.62;;;;;;;5.21;73.16;100536.89;1725603;83;25391;-73
2022/04/11 07:29:58;;;;;;;30.95;22.62;;;;;;;5.14;72.55;100533.16;1725712;83;25371;-72
2022/04/11 07:32:24;;;;;;;37.17;22.75;;;;;;;5.03;72.58;100540.91;1725707;83;25628;-72
2022/04/11 07:34:51;;;;;;;33.92;23.55;;;;;;;4.97;72.40;100543.30;1725686;83;25549;-72
2022/04/11 07:37:17;;;;;;;34.83;23.10;;;;;;;4.91;72.44;100547.85;1725668;83;27974;-71
2022/04/11 07:39:44;;;;;;;33.45;23.47;;;;;;;4.91;72.54;100541.70;1725595;83;25376;-72
2022/04/11 07:42:10;;;;;;;34.33;24.52;;;;;;;4.95;73.13;100544.90;1725675;83;25593;-72
2022/04/11 07:44:37;;;;;;;36.90;23.70;;;;;;;5.10;73.23;100545.47;1725641;83;25629;-72
2022/04/11 07:47:03;;;;;;;31.57;23.07;;;;;;;5.21;73.13;100545.77;1725731;83;25391;-72
2022/04/11 07:49:30;;;;;;;39.13;24.05;;;;;;;5.33;73.18;100550.88;1725892;83;27387;-72
2022/04/11 07:51:57;;;;;;;36.77;24.27;;;;;;;5.37;72.10;100548.45;1703265;83;25624;-72
2022/04/11 07:54:24;;;;;;;31.97;22.48;;;;;;;5.41;71.96;100542.30;1725648;83;25575;-73
2022/04/11 07:56:53;;;;;;;35.92;23.40;;;;;;;5.56;72.09;100548.17;1725600;83;26252;-73
2022/04/11 07:59:20;;;;;;;30.05;19.87;;;;;;;6.21;75.60;100552.14;1725833;83;25448;-72
2022/04/11 08:01:46;;;;;;;32.00;20.97;;;;;;;6.92;73.14;100538.94;1725684;83;27391;-72
2022/04/11 08:04:12;;;;;;;32.20;19.12;;;;;;;7.54;72.51;100534.45;1725530;83;25719;-71
2022/04/11 08:06:39;;;;;;;22.75;16.12;;;;;;;7.77;70.27;100543.13;1725672;83;25565;-72
2022/04/11 08:09:05;;;;;;;22.55;15.25;;;;;;;8.30;71.11;100536.92;1719035;83;25638;-72
2022/04/11 08:11:32;;;;;;;24.70;14.40;;;;;;;8.75;69.09;100536.65;1714065;83;25529;-72
2022/04/11 08:13:59;;;;;;;18.45;13.83;;;;;;;8.89;67.41;100538.11;1714134;83;27874;-73
2022/04/11 08:16:25;;;;;;;23.77;14.10;;;;;;;8.97;67.14;100539.59;1714008;83;25555;-72
2022/04/11 08:18:52;;;;;;;17.95;13.83;;;;;;;9.19;66.53;100531.98;1714099;83;25492;-74
2022/04/11 08:21:19;;;;;;;17.82;12.05;;;;;;;9.21;63.14;100533.31;1714293;83;25584;-72
2022/04/11 08:23:45;;;;;;;16.10;12.15;;;;;;;9.35;62.12;100532.81;1714112;83;25658;-72
2022/04/11 08:26:12;;;;;;;23.95;12.95;;;;;;;9.44;61.49;100530.23;1713993;83;27903;-72
2022/04/11 08:28:39;;;;;;;18.12;12.47;;;;;;;9.78;62.72;100533.73;1714014;83;25616;-73
2022/04/11 08:31:05;;;;;;;20.30;12.93;;;;;;;9.99;62.55;100532.23;1714082;83;25475;-73
2022/04/11 08:33:32;;;;;;;19.00;13.25;;;;;;;9.90;60.59;100539.45;1713971;83;25766;-73
2022/04/11 08:35:58;;;;;;;21.60;13.13;;;;;;;9.72;59.42;100541.10;1714162;83;25572;-73
2022/04/11 08:38:25;;;;;;;19.87;12.18;;;;;;;9.88;59.99;100534.34;1714106;83;27329;-72
2022/04/11 08:40:54;;;;;;;14.63;9.10;;;;;;;10.36;59.25;100536.45;1714053;83;25618;-72
2022/04/11 08:43:23;;;;;;;13.40;8.98;;;;;;;10.77;60.38;100535.03;1714267;83;25400;-72
2022/04/11 08:45:53;;;;;;;15.75;10.35;;;;;;;11.55;61.86;100529.98;1713814;83;25466;-72
2022/04/11 08:48:22;;;;;;;;;;;;;;;12.18;59.25;100534.86;1716883;83;25451;-72
2022/04/11 08:50:49;;;;;;;21.05;10.48;;;;;;;12.45;56.52;100542.53;1695932;83;27360;-73
2022/04/11 08:53:23;;;;;;;13.03;10.03;;;;;;;12.62;54.26;100539.06;1714042;83;25257;-72
2022/04/11 08:55:51;;;;;;;15.78;10.10;;;;;;;12.51;52.08;100546.69;1714304;83;25622;-72
2022/04/11 08:58:19;;;;;;;19.50;10.15;;;;;;;12.39;50.33;100531.58;1714179;83;26325;-72
2022/04/11 09:00:46;;;;;;;16.37;9.30;;;;;;;12.23;51.09;100529.30;1714336;83;25656;-72
2022/04/11 09:03:13;;;;;;;13.43;8.65;;;;;;;12.27;50.17;100525.40;1714299;83;27346;-73
2022/04/11 09:05:39;;;;;;;12.30;8.58;;;;;;;12.38;51.31;100529.97;1714294;83;25689;-73
2022/04/11 09:08:07;;;;;;;15.32;9.05;;;;;;;12.55;51.79;100533.28;1718443;82;25566;-73
2022/04/11 09:10:37;;;;;;;12.60;8.55;;;;;;;12.82;51.44;100521.34;1725775;83;25610;-73
2022/04/11 09:13:08;;;;;;;15.15;9.10;;;;;;;13.39;50.33;100527.20;1725893;83;25406;-73
2022/04/11 09:15:43;;;;;;;14.07;8.08;;;;;;;13.22;48.05;100532.86;1725789;83;27372;-72
2022/04/11 09:18:11;;;;;;;15.00;9.43;;;;;;;12.87;48.95;100532.05;1725664;83;25204;-72
2022/04/11 09:20:42;;;;;;;12.70;10.87;;;;;;;12.32;48.36;100536.89;1725790;83;25757;-71
2022/04/11 09:23:19;;;;;;;22.50;14.63;;;;;;;11.59;48.46;100539.91;1724982;83;25619;-72
2022/04/11 09:25:46;;;;;;;19.67;12.85;;;;;;;10.83;49.07;100537.09;1725517;83;25648;-73
2022/04/11 09:28:13;;;;;;;19.27;13.30;;;;;;;10.33;50.74;100539.19;1725548;83;27964;-73
2022/04/11 09:30:43;;;;;;;19.92;13.40;;;;;;;10.15;52.58;100546.81;1725489;83;25530;-72
2022/04/11 09:33:11;;;;;;;20.00;13.88;;;;;;;10.50;53.92;100548.05;1725719;83;25687;-71
2022/04/11 09:35:44;;;;;;;17.05;12.65;;;;;;;11.31;55.53;100533.81;1725560;83;25768;-73
2022/04/11 09:38:20;;;;;;;21.37;13.25;;;;;;;11.84;53.13;100534.92;1725400;82;25685;-73
2022/04/11 09:40:53;;;;;;;15.53;10.50;;;;;;;11.65;51.76;100535.71;1725496;83;28146;-72
2022/04/11 09:43:30;;;;;;;16.00;8.60;;;;;;;12.15;52.17;100538.98;1703197;83;25664;-73
2022/04/11 09:46:00;;;;;;;18.90;11.30;;;;;;;12.56;51.13;100551.96;1724646;81;25472;-74
2022/04/11 09:48:29;;;;;;;10.38;8.45;;;;;;;12.58;49.27;100545.69;1725769;83;26157;-73
2022/04/11 09:51:00;;;;;;;11.88;8.95;;;;;;;12.27;45.77;100538.96;1726091;83;25261;-73
2022/04/11 09:53:33;;;;;;;11.35;8.30;;;;;;;12.35;47.92;100543.62;1725761;83;27339;-73
2022/04/11 09:56:06;;;;;;;13.30;8.78;;;;;;;12.75;47.60;100530.53;1725261;82;25725;-74
2022/04/11 09:58:39;;;;;;;13.32;8.95;;;;;;;12.92;47.48;100527.03;1725540;83;25682;-73
2022/04/11 10:01:07;;;;;;;13.32;7.47;;;;;;;13.39;47.59;100528.00;1725493;83;25695;-73
2022/04/11 10:03:35;;;;;;;8.58;5.60;;;;;;;13.14;45.38;100536.94;1725499;83;25472;-72
2022/04/11 10:06:05;;;;;;;8.78;5.80;;;;;;;12.68;45.96;100534.53;1725385;83;27378;-73
2022/04/11 10:08:33;;;;;;;10.08;5.58;;;;;;;13.00;43.88;100534.38;1725012;83;25770;-72
2022/04/11 10:10:59;;;;;;;11.70;6.00;;;;;;;13.47;45.16;100528.30;1713918;83;25639;-72
2022/04/11 10:13:26;;;;;;;12.07;5.30;;;;;;;13.97;44.19;100531.77;1713937;83;25739;-72
2022/04/11 10:15:53;;;;;;;11.57;5.28;;;;;;;14.42;45.06;100523.62;1713915;83;25448;-72
2022/04/11 10:18:27;;;;;;;7.92;5.05;;;;;;;14.94;44.08;100526.03;1714106;83;27396;-72
2022/04/11 10:21:06;;;;;;;7.70;4.90;;;;;;;15.29;43.34;100536.08;1713997;83;25308;-72
2022/04/11 10:24:00;;;;;;;9.65;5.25;;;;;;;15.46;40.39;100535.66;1714035;83;25475;-72
2022/04/11 10:26:32;;;;;;;13.70;6.65;;;;;;;15.40;39.75;100528.27;1713848;83;25758;-72
2022/04/11 10:29:00;;;;;;;8.83;6.08;;;;;;;14.85;39.08;100525.31;1698714;83;25699;-71
2022/04/11 10:31:37;;;;;;;10.15;6.10;;;;;;;14.20;39.85;100524.16;1713935;83;27374;-71
2022/04/11 10:34:03;;;;;;;9.63;6.00;;;;;;;13.61;40.93;100531.64;1713784;83;25699;-71
2022/04/11 10:36:39;;;;;;;7.75;5.10;;;;;;;13.29;40.30;100537.02;1713934;83;25531;-72
2022/04/11 10:39:20;;;;;;;7.22;5.08;;;;;;;12.88;40.33;100533.66;1713779;83;25626;-72
2022/04/11 10:42:03;;;;;;;7.28;4.42;;;;;;;12.64;42.21;100533.55;1713943;83;25633;-72
2022/04/11 10:44:31;;;;;;;9.20;4.62;;;;;;;13.39;43.37;100525.84;1713882;83;27343;-74
2022/04/11 10:47:12;;;;;;;10.23;5.05;;;;;;;14.14;43.52;100524.89;1713834;83;25389;-71
2022/04/11 10:49:57;;;;;;;8.73;4.45;;;;;;;15.12;43.56;100529.42;1713266;83;25656;-74
2022/04/11 10:52:32;;;;;;;6.30;3.92;;;;;;;15.09;38.92;100524.64;1713938;83;25814;-73
2022/04/11 10:55:11;;;;;;;8.23;4.72;;;;;;;15.12;38.59;100523.41;1714028;83;25637;-72
2022/04/11 10:57:57;;;;;;;9.98;5.35;;;;;;;15.72;40.47;100520.98;1714083;83;27493;-74
2022/04/11 11:00:31;;;;;;;8.45;5.20;;;;;;;16.37;39.88;100521.95;1713765;83;25621;-74
2022/04/11 11:03:06;;;;;;;8.63;5.00;;;;;;;16.78;40.43;100513.23;1713958;83;25285;-74
2022/04/11 11:05:43;;;;;;;7.25;4.25;;;;;;;17.67;40.34;100520.16;1714262;83;26245;-74
2022/04/11 11:08:15;;;;;;;7.83;4.85;;;;;;;18.48;39.29;100519.80;1713974;83;25705;-73
2022/04/11 11:11:20;;;;;;;5.70;4.65;;;;;;;18.40;37.16;100520.78;1713878;82;27349;-74
2022/04/11 11:13:48;;;;;;;9.03;5.28;;;;;;;18.00;36.76;100519.87;1713812;83;25757;-74
2022/04/11 11:16:20;;;;;;;8.28;4.50;;;;;;;18.01;36.79;100511.86;1713955;83;25612;-75
2022/04/11 11:18:52;;;;;;;8.43;3.83;;;;;;;17.95;35.12;100524.82;1714311;83;25706;-74
2022/04/11 11:21:44;;;;;;;9.23;4.00;;;;;;;16.92;34.79;100544.29;1714381;83;25606;-74